createdAt,value
2022-08-21T00:00:15.427Z,4.18
2022-08-21T00:02:58.681Z,3.30
2022-08-21T00:05:26.954Z,5.55
2022-08-21T00:07:53.971Z,6.57
2022-08-21T00:10:21.029Z,2.60
2022-08-21T00:12:48.870Z,4.28
2022-08-21T00:15:19.789Z,3.15
2022-08-21T00:17:47.473Z,3.35
2022-08-21T00:20:16.888Z,3.35
2022-08-21T00:22:44.342Z,4.13
2022-08-21T00:25:12.047Z,5.00
2022-08-21T00:27:39.155Z,3.58
2022-08-21T00:30:08.601Z,3.53
2022-08-21T00:32:38.936Z,5.50
2022-08-21T00:35:10.014Z,4.57
2022-08-21T00:37:36.928Z,4.05
2022-08-21T00:40:05.401Z,4.18
2022-08-21T00:42:32.636Z,6.18
2022-08-21T00:44:59.950Z,7.25
2022-08-21T00:47:26.806Z,3.33
2022-08-21T00:49:53.795Z,5.50
2022-08-21T00:52:25.814Z,4.90
2022-08-21T00:54:57.874Z,3.60
2022-08-21T00:57:37.020Z,2.70
2022-08-21T01:00:10.522Z,4.65
2022-08-21T01:02:37.547Z,4.88
2022-08-21T01:05:05.539Z,4.53
2022-08-21T01:07:33.239Z,6.50
2022-08-21T01:10:00.516Z,5.15
2022-08-21T01:12:29.374Z,5.43
2022-08-21T01:14:56.365Z,6.88
2022-08-21T01:17:23.557Z,4.78
2022-08-21T01:19:50.477Z,5.05
2022-08-21T01:22:17.438Z,3.70
2022-08-21T01:24:44.472Z,4.15
2022-08-21T01:27:11.667Z,5.68
2022-08-21T01:30:05.496Z,4.05
2022-08-21T01:32:33.361Z,4.25
2022-08-21T01:35:00.366Z,4.63
2022-08-21T01:37:27.372Z,5.20
2022-08-21T01:39:54.546Z,3.53
2022-08-21T01:42:21.675Z,3.35
2022-08-21T01:44:48.755Z,5.88
2022-08-21T01:47:17.617Z,5.32
2022-08-21T01:49:46.385Z,6.80
2022-08-21T01:52:13.979Z,5.40
2022-08-21T01:54:41.410Z,4.50
2022-08-21T01:57:09.676Z,3.38
2022-08-21T01:59:37.942Z,6.22
2022-08-21T02:02:05.425Z,5.50
2022-08-21T02:04:32.776Z,3.03
2022-08-21T02:07:02.060Z,2.47
2022-08-21T02:09:29.479Z,4.55
2022-08-21T02:11:57.642Z,2.63
2022-08-21T02:14:27.157Z,4.60
2022-08-21T02:17:05.457Z,2.20
2022-08-21T02:19:40.229Z,7.78
2022-08-21T02:22:10.697Z,2.42
2022-08-21T02:58:32.279Z,4.80
2022-08-21T03:01:00.627Z,2.70
2022-08-21T03:03:28.996Z,8.40
2022-08-21T03:05:56.135Z,2.15
2022-08-21T03:08:24.239Z,3.78
2022-08-21T03:10:54.943Z,3.30
2022-08-21T03:13:22.183Z,3.55
2022-08-21T03:15:49.931Z,3.65
2022-08-21T03:18:17.277Z,2.30
2022-08-21T03:20:46.945Z,1.98
2022-08-21T03:23:16.759Z,3.70
2022-08-21T03:25:46.974Z,5.77
2022-08-21T03:28:17.696Z,5.40
2022-08-21T03:30:46.333Z,1.92
2022-08-21T03:33:15.087Z,2.88
2022-08-21T03:35:44.599Z,5.78
2022-08-21T03:38:13.730Z,3.42
2022-08-21T03:40:41.617Z,3.50
2022-08-21T03:43:10.619Z,3.67
2022-08-21T03:45:38.646Z,7.82
2022-08-21T03:48:06.471Z,7.00
2022-08-21T03:50:42.894Z,3.92
2022-08-21T03:53:17.138Z,4.35
2022-08-21T03:55:46.770Z,2.85
2022-08-21T03:58:16.682Z,3.08
2022-08-21T04:00:46.034Z,2.13
2022-08-21T04:03:12.922Z,2.17
2022-08-21T04:05:39.672Z,5.45
2022-08-21T04:08:07.287Z,4.75
2022-08-21T04:10:36.983Z,2.38
2022-08-21T04:13:05.114Z,2.38
2022-08-21T04:15:32.956Z,6.40
2022-08-21T04:17:59.933Z,4.50
2022-08-21T04:20:27.586Z,5.15
2022-08-21T04:22:54.595Z,3.92
2022-08-21T04:25:23.583Z,4.03
2022-08-21T04:27:50.424Z,4.95
2022-08-21T04:30:17.646Z,2.25
2022-08-21T04:32:49.767Z,3.30
2022-08-21T04:35:18.773Z,3.92
2022-08-21T04:37:45.565Z,4.10
2022-08-21T04:40:15.339Z,4.57
2022-08-21T04:42:47.850Z,3.22
2022-08-21T04:47:52.803Z,4.10
2022-08-21T04:50:24.061Z,4.93
2022-08-21T04:52:50.918Z,3.72
2022-08-21T04:55:19.308Z,2.25
2022-08-21T04:57:49.265Z,3.08
2022-08-21T05:00:19.650Z,5.38
2022-08-21T05:02:48.499Z,2.72
2022-08-21T05:05:15.948Z,2.65
2022-08-21T05:07:45.403Z,3.60
2022-08-21T05:10:14.904Z,2.53
2022-08-21T05:12:43.791Z,8.07
2022-08-21T05:15:14.639Z,5.10
2022-08-21T05:17:42.542Z,5.22
2022-08-21T05:20:14.167Z,4.97
2022-08-21T05:22:41.145Z,5.10
2022-08-21T05:25:10.616Z,5.55
2022-08-21T05:27:39.439Z,6.30
2022-08-21T05:30:10.179Z,9.15
2022-08-21T05:32:37.244Z,9.07
2022-08-21T05:35:08.651Z,10.48
2022-08-21T05:37:36.080Z,6.00
2022-08-21T05:40:20.656Z,6.93
2022-08-21T05:42:54.215Z,5.75
2022-08-21T05:45:41.229Z,7.93
2022-08-21T05:48:22.080Z,9.98
2022-08-21T05:50:50.674Z,12.57
2022-08-21T05:53:18.950Z,8.68
2022-08-21T05:55:47.093Z,14.32
2022-08-21T05:58:16.420Z,11.35
2022-08-21T06:00:44.151Z,11.93
2022-08-21T06:03:24.501Z,13.80
2022-08-21T06:05:51.320Z,11.27
2022-08-21T06:08:19.619Z,10.32
2022-08-21T06:10:48.022Z,10.30
2022-08-21T06:13:16.769Z,8.07
2022-08-21T06:15:44.525Z,5.97
2022-08-21T06:18:11.837Z,6.38
2022-08-21T06:20:39.237Z,10.68
2022-08-21T06:23:07.299Z,9.82
2022-08-21T06:25:34.188Z,8.73
2022-08-21T06:28:11.180Z,8.55
2022-08-21T06:30:40.089Z,9.77
2022-08-21T06:33:07.844Z,10.82
2022-08-21T06:35:35.460Z,9.75
2022-08-21T06:38:03.350Z,10.27
2022-08-21T06:40:32.209Z,9.27
2022-08-21T06:43:11.399Z,8.10
2022-08-21T06:45:42.200Z,8.00
2022-08-21T06:48:08.960Z,8.50
2022-08-21T06:50:37.002Z,8.77
2022-08-21T06:53:10.692Z,7.63
2022-08-21T06:55:38.492Z,7.85
2022-08-21T06:58:06.209Z,7.97
2022-08-21T07:00:35.039Z,8.50
2022-08-21T07:03:02.482Z,8.25
2022-08-21T07:05:30.514Z,7.85
2022-08-21T07:07:58.159Z,7.68
2022-08-21T07:10:28.338Z,6.53
2022-08-21T07:13:00.815Z,6.18
2022-08-21T07:15:30.445Z,5.70
2022-08-21T07:17:58.376Z,7.72
2022-08-21T07:20:25.325Z,4.95
2022-08-21T07:22:52.126Z,5.35
2022-08-21T07:25:18.860Z,3.90
2022-08-21T07:27:45.589Z,4.55
2022-08-21T07:30:12.527Z,4.75
2022-08-21T07:32:39.180Z,4.97
2022-08-21T07:35:06.261Z,5.40
2022-08-21T07:37:32.956Z,5.30
2022-08-21T07:39:59.735Z,4.60
2022-08-21T07:42:26.431Z,5.03
2022-08-21T07:44:56.473Z,5.43
2022-08-21T07:47:41.803Z,5.10
2022-08-21T07:50:10.619Z,4.80
2022-08-21T07:52:37.857Z,5.03
2022-08-21T07:55:06.630Z,3.95
2022-08-21T07:57:34.018Z,3.70
2022-08-21T08:00:00.823Z,3.50
2022-08-21T08:02:29.881Z,4.03
2022-08-21T08:05:01.902Z,3.85
2022-08-21T08:07:28.688Z,4.70
2022-08-21T08:09:55.545Z,3.97
2022-08-21T08:12:22.376Z,3.28
2022-08-21T08:14:49.071Z,3.63
2022-08-21T08:17:15.825Z,3.83
2022-08-21T08:19:42.518Z,3.35
2022-08-21T08:22:20.831Z,3.88
2022-08-21T08:24:48.008Z,4.13
2022-08-21T08:27:15.149Z,3.75
2022-08-21T08:29:41.971Z,4.30
2022-08-21T08:32:09.603Z,5.10
2022-08-21T08:34:37.973Z,4.15
2022-08-21T08:37:06.569Z,8.80
2022-08-21T08:39:34.846Z,4.70
2022-08-21T08:42:33.778Z,6.15
2022-08-21T08:45:18.823Z,5.18
2022-08-21T08:48:00.766Z,5.20
2022-08-21T08:50:50.555Z,6.30
2022-08-21T08:53:23.049Z,5.60
2022-08-21T08:55:53.269Z,4.60
2022-08-21T08:58:25.486Z,5.45
2022-08-21T09:00:54.929Z,4.65
2022-08-21T09:03:25.987Z,6.65
2022-08-21T09:06:03.272Z,5.05
2022-08-21T09:08:45.225Z,5.35
2022-08-21T09:11:27.952Z,5.15
2022-08-21T09:14:06.800Z,4.50
2022-08-21T09:16:42.102Z,5.32
2022-08-21T09:19:25.057Z,6.75
2022-08-21T09:22:00.697Z,3.47
2022-08-21T09:24:53.182Z,7.95
2022-08-21T09:27:22.892Z,4.55
2022-08-21T09:29:55.045Z,4.95
2022-08-21T09:32:37.069Z,5.50
2022-08-21T09:35:12.598Z,8.57
2022-08-21T09:37:48.191Z,6.38
2022-08-21T09:40:34.973Z,3.90
2022-08-21T09:43:26.226Z,6.32
2022-08-21T09:46:12.545Z,6.25
2022-08-21T09:48:45.446Z,5.63
2022-08-21T09:51:15.994Z,6.00
2022-08-21T09:53:54.250Z,5.05
2022-08-21T09:56:56.137Z,5.75
2022-08-21T09:59:36.911Z,4.45
2022-08-21T10:02:28.435Z,6.88
2022-08-21T10:04:58.733Z,8.35
2022-08-21T10:07:28.667Z,7.75
2022-08-21T10:10:07.679Z,5.18
2022-08-21T10:12:54.595Z,9.20
2022-08-21T10:15:43.627Z,6.07
2022-08-21T10:18:25.355Z,6.32
2022-08-21T10:21:04.470Z,4.22
2022-08-21T10:23:59.472Z,7.60
2022-08-21T10:26:52.083Z,6.07
2022-08-21T10:32:38.266Z,5.18
2022-08-21T10:35:31.695Z,5.22
2022-08-21T10:38:01.611Z,5.95
2022-08-21T10:40:36.961Z,6.22
2022-08-21T10:43:19.799Z,6.30
2022-08-21T10:46:12.875Z,5.05
2022-08-21T10:48:48.806Z,5.00
2022-08-21T10:51:29.222Z,7.07
2022-08-21T10:54:10.809Z,4.90
2022-08-21T10:56:41.403Z,4.95
2022-08-21T10:59:24.564Z,3.80
2022-08-21T11:02:09.934Z,4.03
2022-08-21T11:04:50.219Z,4.13
2022-08-21T11:07:22.868Z,6.03
2022-08-21T11:09:55.138Z,6.38
2022-08-21T11:12:25.758Z,3.88
2022-08-21T11:15:02.271Z,5.30
2022-08-21T11:17:42.623Z,5.57
2022-08-21T11:20:20.255Z,7.55
2022-08-21T11:23:12.262Z,4.38
2022-08-21T11:25:45.162Z,6.15
2022-08-21T11:28:21.475Z,4.90
2022-08-21T11:31:08.493Z,4.72
2022-08-21T11:34:01.423Z,4.90
2022-08-21T11:36:33.987Z,5.05
2022-08-21T11:39:07.834Z,5.03
2022-08-21T11:41:44.263Z,3.35
2022-08-21T11:44:15.626Z,6.28
2022-08-21T11:47:16.156Z,6.65
2022-08-21T11:49:45.596Z,5.22
2022-08-21T11:52:18.749Z,4.68
2022-08-21T11:55:17.465Z,4.95
2022-08-21T11:58:26.948Z,4.28
2022-08-21T12:01:07.863Z,3.35
2022-08-21T12:03:37.404Z,4.20
2022-08-21T12:06:10.959Z,2.67
2022-08-21T12:08:39.284Z,5.05
2022-08-21T12:11:17.340Z,2.58
2022-08-21T12:14:18.447Z,3.65
2022-08-21T12:16:48.136Z,5.20
2022-08-21T12:19:21.203Z,3.10
2022-08-21T12:22:10.642Z,5.68
2022-08-21T12:24:45.371Z,3.08
2022-08-21T12:27:30.844Z,3.45
2022-08-21T12:30:01.492Z,4.85
2022-08-21T12:32:31.154Z,3.55
2022-08-21T12:35:15.552Z,3.22
2022-08-21T12:37:59.887Z,3.83
2022-08-21T12:40:34.235Z,3.53
2022-08-21T12:43:04.945Z,3.15
2022-08-21T12:45:52.042Z,3.30
2022-08-21T12:48:48.632Z,6.20
2022-08-21T12:51:18.882Z,2.90
2022-08-21T12:53:50.075Z,3.08
2022-08-21T12:56:20.805Z,6.77
2022-08-21T12:58:51.330Z,3.30
2022-08-21T13:01:38.103Z,4.28
2022-08-21T13:04:11.926Z,4.95
2022-08-21T13:06:42.906Z,3.30
2022-08-21T13:09:15.079Z,3.67
2022-08-21T13:11:44.792Z,5.80
2022-08-21T13:14:32.676Z,3.53
2022-08-21T13:17:01.814Z,3.72
2022-08-21T13:19:30.399Z,3.25
2022-08-21T13:21:57.696Z,4.50
2022-08-21T13:24:48.737Z,2.40
2022-08-21T13:27:31.070Z,3.38
2022-08-21T13:30:12.111Z,2.35
2022-08-21T13:32:46.971Z,4.07
2022-08-21T13:35:15.952Z,2.95
2022-08-21T13:37:44.636Z,2.05
2022-08-21T13:40:18.806Z,2.83
2022-08-21T13:42:48.839Z,5.40
2022-08-21T13:45:28.318Z,2.03
2022-08-21T13:47:55.993Z,4.90
2022-08-21T13:50:25.520Z,3.72
2022-08-21T13:53:19.860Z,2.58
2022-08-21T13:55:46.520Z,3.42
2022-08-21T13:58:13.616Z,3.75
2022-08-21T14:00:50.447Z,4.90
2022-08-21T14:03:36.115Z,1.80
2022-08-21T14:06:03.507Z,2.53
2022-08-21T14:08:36.021Z,4.00
2022-08-21T14:11:05.930Z,1.63
2022-08-21T14:13:38.480Z,2.20
2022-08-21T14:16:12.435Z,4.30
2022-08-21T14:18:49.146Z,1.90
2022-08-21T14:21:28.243Z,1.48
2022-08-21T14:24:11.209Z,2.05
2022-08-21T14:26:46.740Z,1.63
2022-08-21T14:29:16.318Z,1.73
2022-08-21T14:31:44.021Z,4.65
2022-08-21T14:34:19.350Z,2.55
2022-08-21T14:36:47.730Z,2.40
2022-08-21T14:39:14.469Z,2.65
2022-08-21T14:41:43.406Z,4.95
2022-08-21T14:44:10.958Z,3.35
2022-08-21T14:46:40.866Z,1.80
2022-08-21T14:49:22.260Z,3.88
2022-08-21T14:51:54.670Z,2.30
2022-08-21T14:54:23.218Z,2.63
2022-08-21T14:56:59.904Z,3.05
2022-08-21T14:59:26.710Z,2.58
2022-08-21T15:01:53.497Z,2.00
2022-08-21T15:04:20.333Z,2.67
2022-08-21T15:06:47.057Z,1.23
2022-08-21T15:09:13.823Z,1.80
2022-08-21T15:11:42.037Z,3.30
2022-08-21T15:14:14.574Z,3.05
2022-08-21T15:16:41.318Z,1.85
2022-08-21T15:19:08.039Z,1.92
2022-08-21T15:21:34.694Z,2.40
2022-08-21T15:24:01.407Z,4.15
2022-08-21T15:26:28.136Z,2.53
2022-08-21T15:28:54.826Z,1.35
2022-08-21T15:31:21.615Z,1.35
2022-08-21T15:33:48.279Z,1.52
2022-08-21T15:36:14.959Z,3.00
2022-08-21T15:38:41.707Z,2.25
2022-08-21T15:41:08.763Z,2.28
2022-08-21T15:43:43.483Z,2.65
2022-08-21T15:46:13.998Z,1.38
2022-08-21T15:48:40.741Z,3.38
2022-08-21T15:51:10.716Z,1.88
2022-08-21T15:53:39.896Z,1.50
2022-08-21T15:56:24.196Z,1.55
2022-08-21T15:58:52.547Z,2.17
2022-08-21T16:01:20.732Z,1.65
2022-08-21T16:03:51.178Z,2.95
2022-08-21T16:06:17.871Z,2.40
2022-08-21T16:09:04.462Z,1.42
2022-08-21T16:11:31.161Z,1.50
2022-08-21T16:13:58.006Z,3.20
2022-08-21T16:16:25.456Z,2.65
2022-08-21T16:18:53.097Z,5.10
2022-08-21T16:21:21.600Z,2.92
2022-08-21T16:23:49.534Z,1.80
2022-08-21T16:26:18.573Z,2.67
2022-08-21T16:28:46.489Z,1.85
2022-08-21T16:31:15.699Z,4.43
2022-08-21T16:33:46.083Z,2.08
2022-08-21T16:36:13.851Z,3.03
2022-08-21T16:38:41.799Z,1.38
2022-08-21T16:41:12.027Z,1.25
2022-08-21T16:43:40.697Z,1.35
2022-08-21T16:46:10.467Z,1.52
2022-08-21T16:48:37.167Z,2.30
2022-08-21T16:51:04.902Z,1.30
2022-08-21T16:53:31.606Z,3.92
2022-08-21T16:55:58.488Z,2.67
2022-08-21T16:58:30.155Z,1.90
2022-08-21T17:00:58.851Z,2.35
2022-08-21T17:03:36.326Z,3.42
2022-08-21T17:06:03.381Z,1.77
2022-08-21T17:08:30.068Z,1.85
2022-08-21T17:10:57.130Z,1.27
2022-08-21T17:13:24.935Z,1.98
2022-08-21T17:15:52.738Z,1.80
2022-08-21T17:18:22.090Z,1.40
2022-08-21T17:20:50.033Z,4.72
2022-08-21T17:23:18.291Z,2.67
2022-08-21T17:25:47.412Z,3.08
2022-08-21T17:28:18.164Z,2.95
2022-08-21T17:30:46.132Z,2.85
2022-08-21T17:33:14.864Z,2.20
2022-08-21T17:35:41.718Z,2.85
2022-08-21T17:38:10.131Z,2.20
2022-08-21T17:40:42.277Z,2.60
2022-08-21T17:43:13.094Z,2.80
2022-08-21T17:45:41.763Z,3.17
2022-08-21T17:48:08.773Z,4.00
2022-08-21T17:50:35.743Z,3.15
2022-08-21T17:53:02.729Z,1.75
2022-08-21T17:55:30.146Z,2.88
2022-08-21T17:57:58.523Z,2.05
2022-08-21T18:00:26.632Z,1.92
2022-08-21T18:03:16.040Z,3.13
2022-08-21T18:05:44.546Z,6.03
2022-08-21T18:08:11.804Z,10.85
2022-08-21T18:10:40.999Z,14.60
2022-08-21T18:13:10.547Z,9.93
2022-08-21T18:15:37.383Z,6.97
2022-08-21T18:18:06.023Z,9.25
2022-08-21T18:20:32.750Z,5.57
2022-08-21T18:22:59.997Z,8.98
2022-08-21T18:25:27.209Z,4.85
2022-08-21T18:27:54.589Z,4.47
2022-08-21T18:30:23.942Z,5.75
2022-08-21T18:32:53.938Z,5.40
2022-08-21T18:35:20.963Z,5.30
2022-08-21T18:37:47.664Z,5.55
2022-08-21T18:40:15.657Z,5.13
2022-08-21T18:42:54.914Z,5.38
2022-08-21T18:45:22.694Z,6.13
2022-08-21T18:47:52.226Z,5.65
2022-08-21T18:50:25.036Z,6.32
2022-08-21T18:52:54.392Z,8.40
2022-08-21T18:55:22.958Z,5.53
2022-08-21T18:57:51.642Z,7.50
2022-08-21T19:00:23.296Z,5.78
2022-08-21T19:02:51.762Z,6.55
2022-08-21T19:05:21.008Z,5.32
2022-08-21T19:07:50.027Z,12.13
2022-08-21T19:10:28.618Z,5.20
2022-08-21T19:12:59.169Z,5.93
2022-08-21T19:15:26.516Z,5.65
2022-08-21T19:20:42.813Z,6.93
2022-08-21T19:23:12.266Z,4.95
2022-08-21T19:25:41.509Z,4.57
2022-08-21T19:28:13.239Z,5.82
2022-08-21T19:30:45.881Z,4.53
2022-08-21T19:33:23.380Z,6.30
2022-08-21T19:38:37.993Z,4.28
2022-08-21T19:41:07.108Z,5.38
2022-08-21T19:43:40.813Z,4.50
2022-08-21T19:46:07.918Z,3.88
2022-08-21T19:48:36.689Z,6.05
2022-08-21T19:51:03.730Z,6.18
2022-08-21T19:53:30.420Z,4.57
2022-08-21T19:55:57.127Z,4.22
2022-08-21T19:58:34.979Z,5.10
2022-08-21T20:01:11.289Z,4.15
2022-08-21T20:03:54.736Z,5.60
2022-08-21T20:06:25.131Z,5.55
2022-08-21T20:08:52.928Z,5.22
2022-08-21T20:11:31.553Z,5.18
2022-08-21T20:13:59.274Z,5.68
2022-08-21T20:16:28.337Z,5.00
2022-08-21T20:18:55.190Z,4.43
2022-08-21T20:21:21.872Z,4.75
2022-08-21T20:23:49.917Z,5.93
2022-08-21T20:26:18.270Z,6.40
2022-08-21T20:28:45.671Z,4.00
2022-08-21T20:31:14.678Z,4.18
2022-08-21T20:33:41.975Z,4.72
2022-08-21T20:36:09.349Z,4.43
2022-08-21T20:38:36.804Z,4.03
2022-08-21T20:41:17.887Z,4.20
2022-08-21T20:43:56.630Z,3.80
2022-08-21T20:46:25.335Z,4.50
2022-08-21T20:48:52.527Z,4.22
2022-08-21T20:51:52.742Z,4.68
2022-08-21T20:54:45.192Z,5.15
2022-08-21T20:57:45.517Z,3.60
2022-08-21T21:00:20.809Z,5.50
2022-08-21T21:02:56.867Z,4.45
2022-08-21T21:05:39.538Z,4.53
2022-08-21T21:08:36.200Z,6.72
2022-08-21T21:11:21.151Z,4.60
2022-08-21T21:14:10.330Z,5.35
2022-08-21T21:16:52.726Z,6.28
2022-08-21T21:19:47.889Z,3.28
2022-08-21T21:22:20.344Z,3.17
2022-08-21T21:27:34.869Z,3.75
2022-08-21T21:30:12.411Z,3.40
2022-08-21T21:32:42.098Z,5.78
2022-08-21T21:35:13.378Z,4.95
2022-08-21T21:37:51.462Z,4.50
2022-08-21T21:40:55.854Z,3.92
2022-08-21T21:43:52.671Z,6.47
2022-08-21T21:49:36.072Z,4.95
2022-08-21T21:52:32.253Z,6.18
2022-08-21T21:55:29.117Z,4.90
2022-08-21T21:58:48.369Z,2.85
2022-08-21T22:01:23.869Z,7.10
2022-08-21T22:04:28.364Z,4.07
2022-08-21T22:07:24.956Z,3.08
2022-08-21T22:10:07.064Z,5.18
2022-08-21T22:16:09.310Z,3.60
2022-08-21T22:18:45.860Z,7.65
2022-08-21T22:21:24.061Z,4.25
2022-08-21T22:23:55.466Z,4.53
2022-08-21T22:26:44.207Z,3.90
2022-08-21T22:29:16.617Z,4.78
2022-08-21T22:31:59.614Z,3.72
2022-08-21T22:34:28.682Z,4.43
2022-08-21T22:36:59.381Z,3.10
2022-08-21T22:39:39.243Z,2.72
2022-08-21T22:42:15.887Z,4.95
2022-08-21T22:44:58.154Z,3.47
2022-08-21T22:47:44.694Z,4.18
2022-08-21T22:50:19.031Z,6.28
2022-08-21T22:52:50.316Z,4.22
2022-08-21T22:55:45.838Z,5.72
2022-08-21T22:58:20.759Z,3.20
2022-08-21T23:00:53.239Z,5.72
2022-08-21T23:03:33.508Z,3.30
2022-08-21T23:06:12.548Z,4.88
2022-08-21T23:08:40.149Z,3.58
2022-08-21T23:11:20.986Z,3.92
2022-08-21T23:13:52.595Z,3.42
2022-08-21T23:16:53.818Z,4.85
2022-08-21T23:19:34.464Z,4.45
2022-08-21T23:22:29.056Z,3.30
2022-08-21T23:25:10.224Z,4.93
2022-08-21T23:28:00.540Z,4.43
2022-08-21T23:30:33.519Z,5.15
2022-08-21T23:33:15.447Z,3.05
2022-08-21T23:36:27.664Z,4.75
2022-08-21T23:39:13.399Z,3.42
2022-08-21T23:41:58.798Z,4.25
2022-08-21T23:44:37.134Z,4.70
2022-08-21T23:47:33.015Z,6.03
2022-08-21T23:50:35.651Z,4.63
2022-08-21T23:53:33.774Z,5.28
2022-08-21T23:56:18.383Z,4.85
2022-08-21T23:58:56.010Z,4.60
